sensor_id;sensor_type;location;lat;lon;timestamp;pressure;altitude;pressure_sealevel;temperature;humidity
40117;BME280;25829;50.228;18.936;2023-04-22T00:02:20;98453.09;;;6.87;55.77
40117;BME280;25829;50.228;18.936;2023-04-22T00:05:22;98451.03;;;6.83;55.54
40117;BME280;25829;50.228;18.936;2023-04-22T00:08:23;98450.38;;;6.81;55.71
40117;BME280;25829;50.228;18.936;2023-04-22T00:11:24;98449.56;;;6.80;55.58
40117;BME280;25829;50.228;18.936;2023-04-22T00:14:25;98450.50;;;6.72;55.68
40117;BME280;25829;50.228;18.936;2023-04-22T00:17:26;98452.66;;;6.69;56.58
40117;BME280;25829;50.228;18.936;2023-04-22T00:20:27;98452.38;;;6.64;56.33
40117;BME280;25829;50.228;18.936;2023-04-22T00:23:28;98454.03;;;6.65;56.52
40117;BME280;25829;50.228;18.936;2023-04-22T00:26:29;98449.31;;;6.60;56.55
40117;BME280;25829;50.228;18.936;2023-04-22T00:29:30;98450.88;;;6.54;56.52
40117;BME280;25829;50.228;18.936;2023-04-22T00:32:30;98448.78;;;6.50;56.14
40117;BME280;25829;50.228;18.936;2023-04-22T00:35:31;98455.22;;;6.47;56.04
40117;BME280;25829;50.228;18.936;2023-04-22T00:38:32;98444.09;;;6.45;56.26
40117;BME280;25829;50.228;18.936;2023-04-22T00:41:33;98441.47;;;6.45;56.77
40117;BME280;25829;50.228;18.936;2023-04-22T00:44:35;98445.47;;;6.41;57.07
40117;BME280;25829;50.228;18.936;2023-04-22T00:47:36;98441.28;;;6.32;56.82
40117;BME280;25829;50.228;18.936;2023-04-22T00:50:37;98443.00;;;6.25;57.46
40117;BME280;25829;50.228;18.936;2023-04-22T00:53:37;98443.56;;;6.20;57.78
40117;BME280;25829;50.228;18.936;2023-04-22T00:56:39;98448.50;;;6.15;56.94
40117;BME280;25829;50.228;18.936;2023-04-22T00:59:41;98454.75;;;6.14;57.24
40117;BME280;25829;50.228;18.936;2023-04-22T01:02:42;98449.25;;;6.09;57.67
40117;BME280;25829;50.228;18.936;2023-04-22T01:05:44;98452.84;;;6.08;56.90
40117;BME280;25829;50.228;18.936;2023-04-22T01:08:45;98452.56;;;6.03;57.59
40117;BME280;25829;50.228;18.936;2023-04-22T01:11:46;98456.34;;;6.00;56.72
40117;BME280;25829;50.228;18.936;2023-04-22T01:14:47;98455.88;;;5.97;57.20
40117;BME280;25829;50.228;18.936;2023-04-22T01:17:48;98452.81;;;5.93;57.28
40117;BME280;25829;50.228;18.936;2023-04-22T01:20:49;98453.97;;;5.91;57.16
40117;BME280;25829;50.228;18.936;2023-04-22T01:23:52;98451.06;;;5.86;57.62
40117;BME280;25829;50.228;18.936;2023-04-22T01:26:52;98447.78;;;5.83;57.85
40117;BME280;25829;50.228;18.936;2023-04-22T01:29:54;98447.16;;;5.81;58.75
40117;BME280;25829;50.228;18.936;2023-04-22T01:32:54;98444.91;;;5.78;58.41
40117;BME280;25829;50.228;18.936;2023-04-22T01:35:55;98454.47;;;5.71;58.67
40117;BME280;25829;50.228;18.936;2023-04-22T01:38:56;98451.53;;;5.66;58.79
40117;BME280;25829;50.228;18.936;2023-04-22T01:42:01;98450.06;;;5.64;58.47
40117;BME280;25829;50.228;18.936;2023-04-22T01:45:02;98448.81;;;5.59;59.25
40117;BME280;25829;50.228;18.936;2023-04-22T01:48:04;98459.00;;;5.54;59.21
40117;BME280;25829;50.228;18.936;2023-04-22T01:51:06;98454.72;;;5.53;59.32
40117;BME280;25829;50.228;18.936;2023-04-22T01:54:07;98454.13;;;5.51;59.28
40117;BME280;25829;50.228;18.936;2023-04-22T01:57:10;98454.13;;;5.51;59.03
40117;BME280;25829;50.228;18.936;2023-04-22T02:00:13;98451.38;;;5.45;59.08
40117;BME280;25829;50.228;18.936;2023-04-22T02:03:18;98456.03;;;5.34;59.35
40117;BME280;25829;50.228;18.936;2023-04-22T02:06:19;98450.69;;;5.28;59.59
40117;BME280;25829;50.228;18.936;2023-04-22T02:09:19;98449.88;;;5.27;59.36
40117;BME280;25829;50.228;18.936;2023-04-22T02:12:20;98450.03;;;5.26;59.79
40117;BME280;25829;50.228;18.936;2023-04-22T02:15:21;98452.16;;;5.22;59.69
40117;BME280;25829;50.228;18.936;2023-04-22T02:18:22;98459.41;;;5.20;60.25
40117;BME280;25829;50.228;18.936;2023-04-22T02:21:23;98448.81;;;5.13;59.73
40117;BME280;25829;50.228;18.936;2023-04-22T02:24:23;98456.47;;;5.15;59.63
40117;BME280;25829;50.228;18.936;2023-04-22T02:27:24;98454.84;;;5.14;59.83
40117;BME280;25829;50.228;18.936;2023-04-22T02:30:26;98450.16;;;5.09;60.02
40117;BME280;25829;50.228;18.936;2023-04-22T02:33:27;98446.25;;;5.05;60.33
40117;BME280;25829;50.228;18.936;2023-04-22T02:36:28;98449.53;;;4.99;60.80
40117;BME280;25829;50.228;18.936;2023-04-22T02:39:29;98441.03;;;4.97;60.91
40117;BME280;25829;50.228;18.936;2023-04-22T02:42:31;98451.03;;;4.94;60.44
40117;BME280;25829;50.228;18.936;2023-04-22T02:45:32;98447.13;;;4.89;60.31
40117;BME280;25829;50.228;18.936;2023-04-22T02:48:33;98450.28;;;4.85;60.63
40117;BME280;25829;50.228;18.936;2023-04-22T02:51:33;98444.41;;;4.83;60.90
40117;BME280;25829;50.228;18.936;2023-04-22T02:54:34;98443.91;;;4.79;61.26
40117;BME280;25829;50.228;18.936;2023-04-22T02:57:35;98441.66;;;4.76;60.94
40117;BME280;25829;50.228;18.936;2023-04-22T03:00:35;98444.25;;;4.76;60.75
40117;BME280;25829;50.228;18.936;2023-04-22T03:03:36;98441.97;;;4.73;60.95
40117;BME280;25829;50.228;18.936;2023-04-22T03:06:37;98444.59;;;4.73;60.99
40117;BME280;25829;50.228;18.936;2023-04-22T03:09:38;98445.31;;;4.67;61.34
40117;BME280;25829;50.228;18.936;2023-04-22T03:12:40;98439.59;;;4.63;61.42
40117;BME280;25829;50.228;18.936;2023-04-22T03:15:40;98440.75;;;4.61;60.97
40117;BME280;25829;50.228;18.936;2023-04-22T03:18:41;98445.50;;;4.57;61.23
40117;BME280;25829;50.228;18.936;2023-04-22T03:21:43;98452.84;;;4.54;60.90
40117;BME280;25829;50.228;18.936;2023-04-22T03:24:45;98450.41;;;4.52;61.11
40117;BME280;25829;50.228;18.936;2023-04-22T03:27:46;98453.81;;;4.53;61.14
40117;BME280;25829;50.228;18.936;2023-04-22T03:30:46;98452.84;;;4.54;60.84
40117;BME280;25829;50.228;18.936;2023-04-22T03:33:48;98446.50;;;4.48;60.96
40117;BME280;25829;50.228;18.936;2023-04-22T03:37:00;98448.34;;;4.39;61.09
40117;BME280;25829;50.228;18.936;2023-04-22T03:40:01;98457.94;;;4.39;61.24
40117;BME280;25829;50.228;18.936;2023-04-22T03:43:02;98452.09;;;4.37;61.64
40117;BME280;25829;50.228;18.936;2023-04-22T03:46:04;98454.22;;;4.33;61.96
40117;BME280;25829;50.228;18.936;2023-04-22T03:49:07;98460.78;;;4.29;62.20
40117;BME280;25829;50.228;18.936;2023-04-22T03:52:09;98456.69;;;4.27;62.26
40117;BME280;25829;50.228;18.936;2023-04-22T03:55:13;98462.72;;;4.27;62.04
40117;BME280;25829;50.228;18.936;2023-04-22T03:58:14;98465.03;;;4.22;62.58
40117;BME280;25829;50.228;18.936;2023-04-22T04:01:15;98457.69;;;4.17;62.54
40117;BME280;25829;50.228;18.936;2023-04-22T04:04:21;98464.69;;;4.17;62.66
40117;BME280;25829;50.228;18.936;2023-04-22T04:07:30;98463.22;;;4.14;63.09
40117;BME280;25829;50.228;18.936;2023-04-22T04:10:31;98463.41;;;4.13;62.98
40117;BME280;25829;50.228;18.936;2023-04-22T04:13:33;98457.84;;;4.08;62.81
40117;BME280;25829;50.228;18.936;2023-04-22T04:16:54;98465.19;;;4.04;62.93
40117;BME280;25829;50.228;18.936;2023-04-22T04:20:00;98462.94;;;4.01;62.75
40117;BME280;25829;50.228;18.936;2023-04-22T04:23:02;98459.69;;;3.99;62.63
40117;BME280;25829;50.228;18.936;2023-04-22T04:26:04;98470.94;;;4.00;62.44
40117;BME280;25829;50.228;18.936;2023-04-22T04:29:07;98455.44;;;3.98;62.21
40117;BME280;25829;50.228;18.936;2023-04-22T04:32:10;98463.59;;;4.03;62.72
40117;BME280;25829;50.228;18.936;2023-04-22T04:35:12;98465.06;;;4.06;62.42
40117;BME280;25829;50.228;18.936;2023-04-22T04:38:16;98469.13;;;4.08;62.15
40117;BME280;25829;50.228;18.936;2023-04-22T04:41:18;98476.94;;;4.16;62.46
40117;BME280;25829;50.228;18.936;2023-04-22T04:44:22;98473.69;;;4.23;62.85
40117;BME280;25829;50.228;18.936;2023-04-22T04:47:22;98471.38;;;4.28;63.03
40117;BME280;25829;50.228;18.936;2023-04-22T04:50:27;98478.88;;;4.31;62.61
40117;BME280;25829;50.228;18.936;2023-04-22T04:53:32;98473.97;;;4.28;62.69
40117;BME280;25829;50.228;18.936;2023-04-22T04:56:33;98472.34;;;4.27;62.63
40117;BME280;25829;50.228;18.936;2023-04-22T04:59:34;98475.97;;;4.26;63.23
40117;BME280;25829;50.228;18.936;2023-04-22T05:02:34;98478.88;;;4.31;63.25
40117;BME280;25829;50.228;18.936;2023-04-22T05:05:35;98473.56;;;4.55;63.65
40117;BME280;25829;50.228;18.936;2023-04-22T05:08:36;98474.44;;;4.87;64.01
40117;BME280;25829;50.228;18.936;2023-04-22T05:11:42;98470.09;;;5.33;63.94
40117;BME280;25829;50.228;18.936;2023-04-22T05:14:48;98472.66;;;5.88;63.92
40117;BME280;25829;50.228;18.936;2023-04-22T05:17:49;98473.81;;;6.38;63.35
40117;BME280;25829;50.228;18.936;2023-04-22T05:20:50;98464.94;;;6.83;62.99
40117;BME280;25829;50.228;18.936;2023-04-22T05:23:55;98469.28;;;7.27;61.68
40117;BME280;25829;50.228;18.936;2023-04-22T05:26:56;98468.41;;;7.63;61.24
40117;BME280;25829;50.228;18.936;2023-04-22T05:29:57;98463.06;;;7.99;60.98
40117;BME280;25829;50.228;18.936;2023-04-22T05:33:03;98461.72;;;8.31;59.63
40117;BME280;25829;50.228;18.936;2023-04-22T05:36:05;98471.16;;;8.60;58.95
40117;BME280;25829;50.228;18.936;2023-04-22T05:39:05;98469.84;;;8.84;58.17
40117;BME280;25829;50.228;18.936;2023-04-22T05:42:07;98466.94;;;9.07;57.73
40117;BME280;25829;50.228;18.936;2023-04-22T05:45:09;98463.53;;;9.33;57.33
40117;BME280;25829;50.228;18.936;2023-04-22T05:48:11;98462.41;;;9.62;56.45
40117;BME280;25829;50.228;18.936;2023-04-22T05:51:20;98459.19;;;9.87;55.40
40117;BME280;25829;50.228;18.936;2023-04-22T05:54:21;98462.00;;;10.12;55.49
40117;BME280;25829;50.228;18.936;2023-04-22T05:57:22;98463.81;;;10.25;54.31
40117;BME280;25829;50.228;18.936;2023-04-22T06:00:23;98465.81;;;10.49;54.42
40117;BME280;25829;50.228;18.936;2023-04-22T06:03:37;98466.75;;;10.81;53.68
40117;BME280;25829;50.228;18.936;2023-04-22T06:06:38;98465.75;;;11.21;53.61
40117;BME280;25829;50.228;18.936;2023-04-22T06:09:39;98476.19;;;11.47;51.17
40117;BME280;25829;50.228;18.936;2023-04-22T06:12:44;98470.75;;;11.67;49.96
40117;BME280;25829;50.228;18.936;2023-04-22T06:15:45;98470.16;;;11.65;49.21
40117;BME280;25829;50.228;18.936;2023-04-22T06:18:46;98467.41;;;11.78;50.04
40117;BME280;25829;50.228;18.936;2023-04-22T06:21:47;98472.19;;;11.95;48.24
40117;BME280;25829;50.228;18.936;2023-04-22T06:24:50;98474.59;;;11.96;49.23
40117;BME280;25829;50.228;18.936;2023-04-22T06:27:51;98470.09;;;12.04;48.60
40117;BME280;25829;50.228;18.936;2023-04-22T06:30:54;98472.09;;;12.08;48.13
40117;BME280;25829;50.228;18.936;2023-04-22T06:33:55;98474.34;;;12.05;47.94
40117;BME280;25829;50.228;18.936;2023-04-22T06:36:59;98463.28;;;12.14;48.59
40117;BME280;25829;50.228;18.936;2023-04-22T06:40:00;98469.69;;;12.25;48.02
40117;BME280;25829;50.228;18.936;2023-04-22T06:43:30;98463.34;;;12.33;48.12
40117;BME280;25829;50.228;18.936;2023-04-22T06:46:50;98470.97;;;12.41;47.52
40117;BME280;25829;50.228;18.936;2023-04-22T06:50:11;98473.75;;;12.46;47.99
40117;BME280;25829;50.228;18.936;2023-04-22T06:53:19;98470.25;;;12.52;47.96
40117;BME280;25829;50.228;18.936;2023-04-22T06:56:26;98455.91;;;12.60;46.67
40117;BME280;25829;50.228;18.936;2023-04-22T06:59:48;98453.78;;;12.68;47.64
40117;BME280;25829;50.228;18.936;2023-04-22T07:02:52;98460.97;;;12.80;46.97
40117;BME280;25829;50.228;18.936;2023-04-22T07:05:54;98461.94;;;12.85;47.10
40117;BME280;25829;50.228;18.936;2023-04-22T07:08:55;98462.00;;;12.97;47.49
40117;BME280;25829;50.228;18.936;2023-04-22T07:11:56;98471.63;;;13.10;47.22
40117;BME280;25829;50.228;18.936;2023-04-22T07:14:59;98460.28;;;13.21;46.94
40117;BME280;25829;50.228;18.936;2023-04-22T07:18:00;98475.69;;;13.42;46.55
40117;BME280;25829;50.228;18.936;2023-04-22T07:21:04;98466.66;;;13.62;46.27
40117;BME280;25829;50.228;18.936;2023-04-22T07:24:05;98465.16;;;13.78;45.08
40117;BME280;25829;50.228;18.936;2023-04-22T07:27:43;98464.41;;;13.89;44.04
40117;BME280;25829;50.228;18.936;2023-04-22T07:30:56;98469.16;;;13.99;44.37
40117;BME280;25829;50.228;18.936;2023-04-22T07:33:56;98467.06;;;14.12;43.06
40117;BME280;25829;50.228;18.936;2023-04-22T07:37:00;98463.53;;;14.30;43.47
40117;BME280;25829;50.228;18.936;2023-04-22T07:40:05;98458.75;;;14.56;43.25
40117;BME280;25829;50.228;18.936;2023-04-22T07:43:23;98458.47;;;14.81;42.67
40117;BME280;25829;50.228;18.936;2023-04-22T07:46:24;98459.47;;;15.03;42.08
40117;BME280;25829;50.228;18.936;2023-04-22T07:49:25;98460.31;;;15.21;42.00
40117;BME280;25829;50.228;18.936;2023-04-22T07:52:25;98460.06;;;15.34;41.99
40117;BME280;25829;50.228;18.936;2023-04-22T07:55:29;98461.25;;;15.55;41.72
40117;BME280;25829;50.228;18.936;2023-04-22T07:58:33;98464.63;;;15.84;40.54
40117;BME280;25829;50.228;18.936;2023-04-22T08:01:34;98465.59;;;16.12;39.78
40117;BME280;25829;50.228;18.936;2023-04-22T08:04:34;98453.50;;;16.38;39.39
40117;BME280;25829;50.228;18.936;2023-04-22T08:07:36;98462.06;;;16.62;38.95
40117;BME280;25829;50.228;18.936;2023-04-22T08:10:37;98456.13;;;16.77;38.22
40117;BME280;25829;50.228;18.936;2023-04-22T08:13:37;98451.72;;;16.87;38.29
40117;BME280;25829;50.228;18.936;2023-04-22T08:16:45;98446.47;;;17.14;38.77
40117;BME280;25829;50.228;18.936;2023-04-22T08:19:47;98445.22;;;17.81;39.00
40117;BME280;25829;50.228;18.936;2023-04-22T08:22:50;98448.41;;;18.58;37.42
40117;BME280;25829;50.228;18.936;2023-04-22T08:26:02;98450.25;;;19.20;35.92
40117;BME280;25829;50.228;18.936;2023-04-22T08:29:03;98454.91;;;19.71;35.69
40117;BME280;25829;50.228;18.936;2023-04-22T08:32:04;98446.03;;;20.16;34.82
40117;BME280;25829;50.228;18.936;2023-04-22T08:35:05;98450.91;;;20.94;34.17
40117;BME280;25829;50.228;18.936;2023-04-22T08:38:12;98448.44;;;21.53;30.75
40117;BME280;25829;50.228;18.936;2023-04-22T08:41:14;98436.06;;;21.96;32.28
40117;BME280;25829;50.228;18.936;2023-04-22T08:44:18;98441.72;;;22.48;28.16
40117;BME280;25829;50.228;18.936;2023-04-22T08:47:30;98444.56;;;22.80;29.38
40117;BME280;25829;50.228;18.936;2023-04-22T08:50:38;98445.34;;;23.24;30.04
40117;BME280;25829;50.228;18.936;2023-04-22T08:53:39;98435.50;;;23.71;30.42
40117;BME280;25829;50.228;18.936;2023-04-22T08:56:49;98436.94;;;24.15;25.58
40117;BME280;25829;50.228;18.936;2023-04-22T08:59:59;98435.06;;;24.43;27.60
40117;BME280;25829;50.228;18.936;2023-04-22T09:03:01;98438.16;;;24.50;28.85
40117;BME280;25829;50.228;18.936;2023-04-22T09:09:54;98429.66;;;24.98;28.02
40117;BME280;25829;50.228;18.936;2023-04-22T09:13:10;98426.31;;;25.15;28.09
40117;BME280;25829;50.228;18.936;2023-04-22T09:16:19;98430.44;;;24.98;23.73
40117;BME280;25829;50.228;18.936;2023-04-22T09:19:58;98428.78;;;24.75;24.37
40117;BME280;25829;50.228;18.936;2023-04-22T09:27:23;98420.66;;;23.54;25.11
40117;BME280;25829;50.228;18.936;2023-04-22T09:30:31;98422.25;;;22.80;27.69
40117;BME280;25829;50.228;18.936;2023-04-22T09:33:37;98425.47;;;22.05;26.69
40117;BME280;25829;50.228;18.936;2023-04-22T09:40:02;98417.31;;;21.12;28.69
40117;BME280;25829;50.228;18.936;2023-04-22T09:43:08;98419.78;;;20.98;29.15
40117;BME280;25829;50.228;18.936;2023-04-22T09:46:09;98415.88;;;21.30;29.75
40117;BME280;25829;50.228;18.936;2023-04-22T09:49:10;98410.31;;;21.90;29.78
40117;BME280;25829;50.228;18.936;2023-04-22T09:52:25;98405.25;;;22.36;26.61
40117;BME280;25829;50.228;18.936;2023-04-22T09:55:31;98400.31;;;22.73;28.70
40117;BME280;25829;50.228;18.936;2023-04-22T09:58:55;98396.03;;;23.28;27.09
40117;BME280;25829;50.228;18.936;2023-04-22T10:02:01;98392.63;;;23.42;27.83
40117;BME280;25829;50.228;18.936;2023-04-22T10:05:12;98390.44;;;23.25;28.54
40117;BME280;25829;50.228;18.936;2023-04-22T10:08:14;98388.31;;;22.84;30.04
40117;BME280;25829;50.228;18.936;2023-04-22T10:11:18;98387.19;;;22.42;28.35
40117;BME280;25829;50.228;18.936;2023-04-22T10:14:23;98386.56;;;22.02;29.31
40117;BME280;25829;50.228;18.936;2023-04-22T10:17:24;98388.47;;;21.67;29.83
40117;BME280;25829;50.228;18.936;2023-04-22T10:20:26;98385.72;;;21.43;30.43
40117;BME280;25829;50.228;18.936;2023-04-22T10:23:33;98382.94;;;21.19;29.61
40117;BME280;25829;50.228;18.936;2023-04-22T10:26:42;98388.44;;;20.94;29.21
40117;BME280;25829;50.228;18.936;2023-04-22T10:29:55;98383.50;;;20.62;29.08
40117;BME280;25829;50.228;18.936;2023-04-22T10:36:53;98363.09;;;19.75;28.87
40117;BME280;25829;50.228;18.936;2023-04-22T10:40:08;98373.25;;;19.58;28.76
40117;BME280;25829;50.228;18.936;2023-04-22T10:44:00;98371.66;;;19.37;27.43
40117;BME280;25829;50.228;18.936;2023-04-22T10:47:01;98360.13;;;19.10;28.94
40117;BME280;25829;50.228;18.936;2023-04-22T10:53:44;98336.28;;;18.94;30.29
40117;BME280;25829;50.228;18.936;2023-04-22T10:57:15;98352.09;;;18.95;28.63
40117;BME280;25829;50.228;18.936;2023-04-22T11:00:39;98364.03;;;18.77;29.14
40117;BME280;25829;50.228;18.936;2023-04-22T11:03:47;98359.47;;;18.68;29.26
40117;BME280;25829;50.228;18.936;2023-04-22T11:11:07;98344.59;;;18.19;28.70
40117;BME280;25829;50.228;18.936;2023-04-22T11:14:09;98337.59;;;18.13;30.64
40117;BME280;25829;50.228;18.936;2023-04-22T11:20:37;98326.75;;;18.30;30.96
40117;BME280;25829;50.228;18.936;2023-04-22T11:23:51;98328.91;;;18.38;30.81
40117;BME280;25829;50.228;18.936;2023-04-22T11:26:56;98327.63;;;18.46;29.62
40117;BME280;25829;50.228;18.936;2023-04-22T11:33:08;98321.41;;;18.35;28.10
40117;BME280;25829;50.228;18.936;2023-04-22T11:36:16;98330.41;;;18.13;28.77
40117;BME280;25829;50.228;18.936;2023-04-22T11:39:22;98330.63;;;18.07;26.88
40117;BME280;25829;50.228;18.936;2023-04-22T11:42:35;98314.84;;;18.00;29.19
40117;BME280;25829;50.228;18.936;2023-04-22T11:45:37;98324.47;;;18.01;29.43
40117;BME280;25829;50.228;18.936;2023-04-22T11:48:39;98317.81;;;18.04;29.27
40117;BME280;25829;50.228;18.936;2023-04-22T11:51:56;98307.69;;;18.06;29.34
40117;BME280;25829;50.228;18.936;2023-04-22T11:55:04;98310.66;;;18.14;29.46
40117;BME280;25829;50.228;18.936;2023-04-22T11:58:44;98287.47;;;18.25;29.37
40117;BME280;25829;50.228;18.936;2023-04-22T12:01:46;98306.38;;;18.13;29.21
40117;BME280;25829;50.228;18.936;2023-04-22T12:04:47;98308.69;;;18.00;27.27
40117;BME280;25829;50.228;18.936;2023-04-22T12:07:48;98300.88;;;17.88;27.04
40117;BME280;25829;50.228;18.936;2023-04-22T12:10:56;98312.88;;;17.85;28.53
40117;BME280;25829;50.228;18.936;2023-04-22T12:17:26;98293.69;;;17.88;28.89
40117;BME280;25829;50.228;18.936;2023-04-22T12:20:32;98289.97;;;17.95;28.06
40117;BME280;25829;50.228;18.936;2023-04-22T12:23:56;98299.38;;;18.02;27.42
40117;BME280;25829;50.228;18.936;2023-04-22T12:27:07;98297.03;;;18.11;28.62
40117;BME280;25829;50.228;18.936;2023-04-22T12:30:12;98295.66;;;18.03;25.08
40117;BME280;25829;50.228;18.936;2023-04-22T12:33:13;98295.91;;;18.02;26.75
40117;BME280;25829;50.228;18.936;2023-04-22T12:36:20;98280.69;;;18.02;27.45
40117;BME280;25829;50.228;18.936;2023-04-22T12:39:27;98294.63;;;18.09;26.08
40117;BME280;25829;50.228;18.936;2023-04-22T12:42:56;98284.50;;;18.11;26.66
40117;BME280;25829;50.228;18.936;2023-04-22T12:46:15;98273.53;;;18.13;26.40
40117;BME280;25829;50.228;18.936;2023-04-22T12:49:22;98278.34;;;18.16;27.70
40117;BME280;25829;50.228;18.936;2023-04-22T12:52:26;98276.25;;;18.18;26.40
40117;BME280;25829;50.228;18.936;2023-04-22T12:56:05;98281.06;;;18.26;26.63
40117;BME280;25829;50.228;18.936;2023-04-22T13:00:04;98272.53;;;18.34;28.05
40117;BME280;25829;50.228;18.936;2023-04-22T13:03:37;98267.19;;;18.34;24.86
40117;BME280;25829;50.228;18.936;2023-04-22T13:06:38;98266.91;;;18.31;27.10
40117;BME280;25829;50.228;18.936;2023-04-22T13:09:50;98271.22;;;18.32;27.02
40117;BME280;25829;50.228;18.936;2023-04-22T13:12:51;98261.59;;;18.36;27.47
40117;BME280;25829;50.228;18.936;2023-04-22T13:16:00;98266.16;;;18.35;25.48
40117;BME280;25829;50.228;18.936;2023-04-22T13:19:04;98257.31;;;18.35;25.56
40117;BME280;25829;50.228;18.936;2023-04-22T13:22:05;98253.84;;;18.34;25.83
40117;BME280;25829;50.228;18.936;2023-04-22T13:25:09;98257.88;;;18.42;26.65
40117;BME280;25829;50.228;18.936;2023-04-22T13:28:10;98249.06;;;18.47;26.08
40117;BME280;25829;50.228;18.936;2023-04-22T13:31:36;98248.81;;;18.53;25.06
40117;BME280;25829;50.228;18.936;2023-04-22T13:34:40;98246.69;;;18.50;26.33
40117;BME280;25829;50.228;18.936;2023-04-22T13:37:55;98245.63;;;18.56;25.50
40117;BME280;25829;50.228;18.936;2023-04-22T13:41:07;98236.25;;;18.59;26.99
40117;BME280;25829;50.228;18.936;2023-04-22T13:47:25;98238.16;;;18.63;25.98
40117;BME280;25829;50.228;18.936;2023-04-22T13:50:25;98240.81;;;18.53;25.22
40117;BME280;25829;50.228;18.936;2023-04-22T13:53:33;98236.25;;;18.44;25.41
40117;BME280;25829;50.228;18.936;2023-04-22T13:56:34;98230.59;;;18.35;25.81
40117;BME280;25829;50.228;18.936;2023-04-22T13:59:35;98228.22;;;18.33;26.05
40117;BME280;25829;50.228;18.936;2023-04-22T14:06:47;98222.88;;;18.33;25.98
40117;BME280;25829;50.228;18.936;2023-04-22T14:10:03;98227.13;;;18.34;24.74
40117;BME280;25829;50.228;18.936;2023-04-22T14:13:19;98228.22;;;18.38;25.77
40117;BME280;25829;50.228;18.936;2023-04-22T14:16:26;98228.22;;;18.44;26.13
40117;BME280;25829;50.228;18.936;2023-04-22T14:19:37;98226.38;;;18.44;25.67
40117;BME280;25829;50.228;18.936;2023-04-22T14:22:47;98209.25;;;18.40;26.33
40117;BME280;25829;50.228;18.936;2023-04-22T14:25:48;98221.28;;;18.37;26.20
40117;BME280;25829;50.228;18.936;2023-04-22T14:28:51;98215.94;;;18.37;26.50
40117;BME280;25829;50.228;18.936;2023-04-22T14:31:52;98212.47;;;18.42;27.07
40117;BME280;25829;50.228;18.936;2023-04-22T14:34:57;98213.81;;;18.45;27.06
40117;BME280;25829;50.228;18.936;2023-04-22T14:37:58;98209.81;;;18.47;26.80
40117;BME280;25829;50.228;18.936;2023-04-22T14:41:15;98204.72;;;18.40;26.54
40117;BME280;25829;50.228;18.936;2023-04-22T14:44:16;98207.13;;;18.37;25.75
40117;BME280;25829;50.228;18.936;2023-04-22T14:47:18;98204.72;;;18.35;26.10
40117;BME280;25829;50.228;18.936;2023-04-22T14:50:19;98198.84;;;18.33;26.47
40117;BME280;25829;50.228;18.936;2023-04-22T14:53:26;98195.38;;;18.33;25.65
40117;BME280;25829;50.228;18.936;2023-04-22T14:56:27;98205.25;;;18.32;26.20
40117;BME280;25829;50.228;18.936;2023-04-22T14:59:28;98207.13;;;18.32;26.66
40117;BME280;25829;50.228;18.936;2023-04-22T15:02:32;98197.50;;;18.36;26.97
40117;BME280;25829;50.228;18.936;2023-04-22T15:05:36;98196.44;;;18.37;27.17
40117;BME280;25829;50.228;18.936;2023-04-22T15:08:37;98194.84;;;18.36;27.46
40117;BME280;25829;50.228;18.936;2023-04-22T15:11:37;98193.22;;;18.35;27.90
40117;BME280;25829;50.228;18.936;2023-04-22T15:14:38;98186.56;;;18.32;27.56
40117;BME280;25829;50.228;18.936;2023-04-22T15:17:39;98189.22;;;18.32;27.40
40117;BME280;25829;50.228;18.936;2023-04-22T15:20:40;98190.81;;;18.33;27.47
40117;BME280;25829;50.228;18.936;2023-04-22T15:23:41;98184.41;;;18.34;27.48
40117;BME280;25829;50.228;18.936;2023-04-22T15:26:42;98183.59;;;18.34;27.90
40117;BME280;25829;50.228;18.936;2023-04-22T15:29:42;98179.06;;;18.34;27.75
40117;BME280;25829;50.228;18.936;2023-04-22T15:32:49;98180.94;;;18.34;27.95
40117;BME280;25829;50.228;18.936;2023-04-22T15:35:50;98182.00;;;18.33;28.05
40117;BME280;25829;50.228;18.936;2023-04-22T15:38:58;98178.53;;;18.32;27.97
40117;BME280;25829;50.228;18.936;2023-04-22T15:42:10;98186.00;;;18.30;27.53
40117;BME280;25829;50.228;18.936;2023-04-22T15:45:14;98177.47;;;18.28;28.53
40117;BME280;25829;50.228;18.936;2023-04-22T15:48:16;98188.16;;;18.28;27.88
40117;BME280;25829;50.228;18.936;2023-04-22T15:51:18;98182.53;;;18.20;26.81
40117;BME280;25829;50.228;18.936;2023-04-22T15:54:42;98184.91;;;18.16;27.25
40117;BME280;25829;50.228;18.936;2023-04-22T15:57:43;98189.97;;;18.12;27.83
40117;BME280;25829;50.228;18.936;2023-04-22T16:00:44;98188.38;;;18.11;28.16
40117;BME280;25829;50.228;18.936;2023-04-22T16:03:46;98189.19;;;18.12;28.13
40117;BME280;25829;50.228;18.936;2023-04-22T16:06:52;98188.38;;;18.11;27.12
40117;BME280;25829;50.228;18.936;2023-04-22T16:10:16;98187.28;;;18.07;27.38
40117;BME280;25829;50.228;18.936;2023-04-22T16:13:47;98177.69;;;18.06;26.44
40117;BME280;25829;50.228;18.936;2023-04-22T16:16:48;98183.22;;;18.00;27.50
40117;BME280;25829;50.228;18.936;2023-04-22T16:19:53;98176.81;;;17.96;28.04
40117;BME280;25829;50.228;18.936;2023-04-22T16:22:58;98180.81;;;17.93;27.65
40117;BME280;25829;50.228;18.936;2023-04-22T16:26:16;98173.88;;;17.87;28.18
40117;BME280;25829;50.228;18.936;2023-04-22T16:29:17;98175.19;;;17.84;28.76
40117;BME280;25829;50.228;18.936;2023-04-22T16:32:18;98170.09;;;17.83;28.72
40117;BME280;25829;50.228;18.936;2023-04-22T16:35:19;98166.38;;;17.84;28.81
40117;BME280;25829;50.228;18.936;2023-04-22T16:38:20;98166.09;;;17.80;28.90
40117;BME280;25829;50.228;18.936;2023-04-22T16:41:21;98173.00;;;17.76;28.92
40117;BME280;25829;50.228;18.936;2023-04-22T16:44:22;98171.41;;;17.75;29.06
40117;BME280;25829;50.228;18.936;2023-04-22T16:47:22;98175.16;;;17.74;29.31
40117;BME280;25829;50.228;18.936;2023-04-22T16:50:29;98173.78;;;17.72;29.35
40117;BME280;25829;50.228;18.936;2023-04-22T16:53:30;98167.66;;;17.66;29.25